createdAt,value
2022-11-13T00:00:52.675Z,6.80
2022-11-13T00:02:55.863Z,6.80
2022-11-13T00:04:59.075Z,6.80
2022-11-13T00:07:04.920Z,6.80
2022-11-13T00:09:12.360Z,6.80
2022-11-13T00:11:18.501Z,6.80
2022-11-13T00:13:23.979Z,6.80
2022-11-13T00:15:31.137Z,6.80
2022-11-13T00:17:34.382Z,6.90
2022-11-13T00:19:38.001Z,6.90
2022-11-13T00:21:41.310Z,6.90
2022-11-13T00:23:45.213Z,6.90
2022-11-13T00:25:49.969Z,7.00
2022-11-13T00:27:53.593Z,6.90
2022-11-13T00:29:56.824Z,7.00
2022-11-13T00:32:00.399Z,7.00
2022-11-13T00:36:29.031Z,7.00
2022-11-13T00:38:32.717Z,7.00
2022-11-13T00:40:36.023Z,7.00
2022-11-13T00:42:40.734Z,6.90
2022-11-13T00:44:43.925Z,6.90
2022-11-13T00:46:47.175Z,6.90
2022-11-13T00:48:50.554Z,6.90
2022-11-13T00:50:54.694Z,6.90
2022-11-13T00:52:57.905Z,6.80
2022-11-13T00:55:01.395Z,6.80
2022-11-13T00:57:04.646Z,6.70
2022-11-13T00:59:09.337Z,6.80
2022-11-13T01:01:14.763Z,6.80
2022-11-13T01:03:19.278Z,6.80
2022-11-13T01:05:22.532Z,6.80
2022-11-13T01:07:25.760Z,6.80
2022-11-13T01:09:28.967Z,6.80
2022-11-13T01:11:35.975Z,6.70
2022-11-13T01:13:39.667Z,6.80
2022-11-13T01:15:45.952Z,6.70
2022-11-13T01:17:49.155Z,6.70
2022-11-13T01:19:56.317Z,6.60
2022-11-13T01:21:59.643Z,6.60
2022-11-13T01:24:03.207Z,6.50
2022-11-13T01:26:10.018Z,6.50
2022-11-13T01:28:13.290Z,6.50
2022-11-13T01:30:16.640Z,6.50
2022-11-13T01:32:21.301Z,6.40
2022-11-13T01:34:24.691Z,6.30
2022-11-13T01:36:29.429Z,6.20
2022-11-13T01:38:36.253Z,6.10
2022-11-13T01:40:46.706Z,6.00
2022-11-13T01:42:49.914Z,5.90
2022-11-13T01:44:54.919Z,5.80
2022-11-13T01:46:58.475Z,5.70
2022-11-13T01:49:16.515Z,5.70
2022-11-13T01:51:25.437Z,5.60
2022-11-13T01:53:29.741Z,5.60
2022-11-13T01:55:33.123Z,5.60
2022-11-13T01:57:36.677Z,5.50
2022-11-13T01:59:42.979Z,5.40
2022-11-13T02:01:46.572Z,5.30
2022-11-13T02:03:50.132Z,5.20
2022-11-13T02:05:55.724Z,5.20
2022-11-13T02:07:59.020Z,5.10
2022-11-13T02:10:05.778Z,5.00
2022-11-13T02:12:12.966Z,4.90
2022-11-13T02:14:17.171Z,4.80
2022-11-13T02:16:23.184Z,4.70
2022-11-13T02:18:28.871Z,4.70
2022-11-13T02:20:39.180Z,4.60
2022-11-13T02:22:51.795Z,4.50
2022-11-13T02:25:00.206Z,4.40
2022-11-13T02:27:07.034Z,4.40
2022-11-13T02:29:10.367Z,4.30
2022-11-13T02:31:15.359Z,4.20
2022-11-13T02:33:24.053Z,4.10
2022-11-13T02:35:29.761Z,4.00
2022-11-13T02:37:33.158Z,3.80
2022-11-13T02:39:36.752Z,3.80
2022-11-13T02:41:41.559Z,3.70
2022-11-13T02:43:44.865Z,3.70
2022-11-13T02:45:48.036Z,3.60
2022-11-13T02:47:51.379Z,3.60
2022-11-13T02:49:54.677Z,3.60
2022-11-13T02:51:57.923Z,3.50
2022-11-13T02:54:01.559Z,3.50
2022-11-13T02:56:05.016Z,3.50
2022-11-13T02:58:09.722Z,3.40
2022-11-13T03:00:14.503Z,3.30
2022-11-13T03:02:17.794Z,3.30
2022-11-13T03:04:21.024Z,3.20
2022-11-13T03:06:24.279Z,3.20
2022-11-13T03:08:27.906Z,3.10
2022-11-13T03:10:31.307Z,3.10
2022-11-13T03:12:35.435Z,3.10
2022-11-13T03:14:40.129Z,3.10
2022-11-13T03:16:43.650Z,3.10
2022-11-13T03:18:46.942Z,3.00
2022-11-13T03:20:53.990Z,3.10
2022-11-13T03:22:57.311Z,3.00
2022-11-13T03:25:00.579Z,3.00
2022-11-13T03:27:04.070Z,2.90
2022-11-13T03:29:07.360Z,2.90
2022-11-13T03:31:12.143Z,2.90
2022-11-13T03:33:17.555Z,2.80
2022-11-13T03:35:20.994Z,2.80
2022-11-13T03:37:24.265Z,2.80
2022-11-13T03:39:27.417Z,2.70
2022-11-13T03:41:30.852Z,2.70
2022-11-13T03:43:34.006Z,2.70
2022-11-13T03:45:37.218Z,2.60
2022-11-13T03:47:42.022Z,2.60
2022-11-13T03:49:45.813Z,2.60
2022-11-13T03:51:49.103Z,2.60
2022-11-13T03:53:52.388Z,2.50
2022-11-13T03:55:55.824Z,2.40
2022-11-13T03:57:59.038Z,2.40
2022-11-13T04:00:04.586Z,2.50
2022-11-13T04:02:07.824Z,2.50
2022-11-13T04:04:12.831Z,2.50
2022-11-13T04:06:16.032Z,2.50
2022-11-13T04:08:19.367Z,2.40
2022-11-13T04:10:22.620Z,2.40
2022-11-13T04:12:25.984Z,2.30
2022-11-13T04:14:29.190Z,2.20
2022-11-13T04:16:32.420Z,2.20
2022-11-13T04:18:35.825Z,2.20
2022-11-13T04:20:40.486Z,2.20
2022-11-13T04:22:44.251Z,2.10
2022-11-13T04:24:47.563Z,2.20
2022-11-13T04:26:50.723Z,2.10
2022-11-13T04:28:54.280Z,2.10
2022-11-13T04:30:57.759Z,2.10
2022-11-13T04:33:01.205Z,2.10
2022-11-13T04:35:04.868Z,2.00
2022-11-13T04:37:09.586Z,2.10
2022-11-13T04:39:12.773Z,2.00
2022-11-13T04:41:52.519Z,2.00
2022-11-13T04:43:58.313Z,2.00
2022-11-13T04:46:01.660Z,2.00
2022-11-13T04:48:05.210Z,2.10
2022-11-13T04:50:08.778Z,2.10
2022-11-13T04:52:14.069Z,2.10
2022-11-13T04:54:17.420Z,2.10
2022-11-13T04:56:21.001Z,2.10
2022-11-13T04:58:24.316Z,2.10
2022-11-13T05:00:27.573Z,2.00
2022-11-13T05:02:30.870Z,2.00
2022-11-13T05:04:34.312Z,2.00
2022-11-13T05:06:37.555Z,2.00
2022-11-13T05:08:42.490Z,2.00
2022-11-13T05:10:45.728Z,1.90
2022-11-13T05:12:48.925Z,1.80
2022-11-13T05:14:52.218Z,1.80
2022-11-13T05:16:55.401Z,1.70
2022-11-13T05:19:00.132Z,1.70
2022-11-13T05:21:03.660Z,1.70
2022-11-13T05:23:06.914Z,1.70
2022-11-13T05:25:11.692Z,1.60
2022-11-13T05:27:17.548Z,1.50
2022-11-13T05:29:21.342Z,1.60
2022-11-13T05:31:24.625Z,1.60
2022-11-13T05:33:30.534Z,1.60
2022-11-13T05:35:34.130Z,1.60
2022-11-13T05:37:37.363Z,1.70
2022-11-13T05:39:40.542Z,1.90
2022-11-13T05:41:45.129Z,2.10
2022-11-13T05:43:49.022Z,2.30
2022-11-13T05:45:52.442Z,2.50
2022-11-13T05:47:55.659Z,2.60
2022-11-13T05:49:58.889Z,2.80
2022-11-13T05:52:02.124Z,3.00
2022-11-13T05:54:06.234Z,3.10
2022-11-13T05:56:12.451Z,3.20
2022-11-13T05:58:17.069Z,3.30
2022-11-13T06:00:20.647Z,3.30
2022-11-13T06:02:24.002Z,3.40
2022-11-13T06:04:27.349Z,3.40
2022-11-13T06:06:31.917Z,3.60
2022-11-13T06:08:35.527Z,3.60
2022-11-13T06:10:38.808Z,3.70
2022-11-13T06:12:41.974Z,3.80
2022-11-13T06:14:46.764Z,3.90
2022-11-13T06:16:50.000Z,4.00
2022-11-13T06:18:56.714Z,4.00
2022-11-13T06:21:02.726Z,4.10
2022-11-13T06:23:05.949Z,4.20
2022-11-13T06:25:09.346Z,4.20
2022-11-13T06:27:13.018Z,4.30
2022-11-13T06:29:16.201Z,4.40
2022-11-13T06:31:24.386Z,4.50
2022-11-13T06:33:29.789Z,4.60
2022-11-13T06:35:33.423Z,4.60
2022-11-13T06:37:36.663Z,4.70
2022-11-13T06:39:40.106Z,4.70
2022-11-13T06:41:43.261Z,4.80
2022-11-13T06:43:47.731Z,4.90
2022-11-13T06:45:51.321Z,4.90
2022-11-13T06:47:56.948Z,5.00
2022-11-13T06:50:00.210Z,5.00
2022-11-13T06:52:03.474Z,5.10
2022-11-13T06:54:06.880Z,5.10
2022-11-13T06:56:10.311Z,5.20
2022-11-13T06:58:13.811Z,5.30
2022-11-13T07:00:18.238Z,5.50
2022-11-13T07:02:21.545Z,5.50
2022-11-13T07:04:26.545Z,5.50
2022-11-13T07:06:29.837Z,5.60
2022-11-13T07:08:33.384Z,5.60
2022-11-13T07:10:36.722Z,5.80
2022-11-13T07:12:41.753Z,5.90
2022-11-13T07:14:45.070Z,6.00
2022-11-13T07:17:08.627Z,6.10
2022-11-13T07:19:11.712Z,6.10
2022-11-13T07:21:16.238Z,6.10
2022-11-13T07:23:19.550Z,6.10
2022-11-13T07:25:23.098Z,6.10
2022-11-13T07:27:26.390Z,6.10
2022-11-13T07:29:29.627Z,6.20
2022-11-13T07:31:32.928Z,6.20
2022-11-13T07:33:36.203Z,6.30
2022-11-13T07:35:39.652Z,6.30
2022-11-13T07:37:44.580Z,6.40
2022-11-13T07:39:47.770Z,6.50
2022-11-13T07:41:50.998Z,6.60
2022-11-13T07:43:54.550Z,6.80
2022-11-13T07:46:01.754Z,6.80
2022-11-13T07:48:05.991Z,6.80
2022-11-13T07:50:11.145Z,6.90
2022-11-13T07:52:14.554Z,6.90
2022-11-13T07:54:19.176Z,6.90
2022-11-13T07:56:23.408Z,7.00
2022-11-13T07:58:27.167Z,7.10
2022-11-13T08:00:33.153Z,7.20
2022-11-13T08:02:36.757Z,7.40
2022-11-13T08:04:40.116Z,7.60
2022-11-13T08:06:43.910Z,7.90
2022-11-13T08:08:49.097Z,8.10
2022-11-13T08:10:54.068Z,8.40
2022-11-13T08:13:02.136Z,8.80
2022-11-13T08:15:09.369Z,9.40
2022-11-13T08:17:16.779Z,9.60
2022-11-13T08:19:20.070Z,9.60
2022-11-13T08:21:23.363Z,9.80
2022-11-13T08:23:26.957Z,10.00
2022-11-13T08:25:30.950Z,10.40
2022-11-13T08:27:35.789Z,11.00
2022-11-13T08:29:39.237Z,12.10
2022-11-13T08:31:42.578Z,12.30
2022-11-13T08:33:45.970Z,12.40
2022-11-13T08:35:59.628Z,12.90
2022-11-13T08:38:07.016Z,13.20
2022-11-13T08:40:11.505Z,14.10
2022-11-13T08:42:15.190Z,15.20
2022-11-13T08:44:19.929Z,15.80
2022-11-13T08:46:23.231Z,16.10
2022-11-13T08:48:26.817Z,17.00
2022-11-13T08:50:31.541Z,17.80
2022-11-13T08:52:34.883Z,18.00
2022-11-13T08:54:38.255Z,19.00
2022-11-13T08:56:41.661Z,20.10
2022-11-13T08:58:45.061Z,20.40
2022-11-13T09:00:49.738Z,20.70
2022-11-13T09:02:55.885Z,21.20
2022-11-13T09:04:59.095Z,21.20
2022-11-13T09:07:02.323Z,21.10
2022-11-13T09:09:06.818Z,21.80
2022-11-13T09:11:10.218Z,21.50
2022-11-13T09:13:13.454Z,20.50
2022-11-13T09:15:21.696Z,20.70
2022-11-13T09:17:28.753Z,20.60
2022-11-13T09:19:32.143Z,21.30
2022-11-13T09:21:35.513Z,21.70
2022-11-13T09:23:39.107Z,22.20
2022-11-13T09:25:42.608Z,21.50
2022-11-13T09:27:53.094Z,22.10
2022-11-13T09:29:56.349Z,22.80
2022-11-13T09:31:59.595Z,22.90
2022-11-13T09:34:04.365Z,23.00
2022-11-13T09:36:13.119Z,23.30
2022-11-13T09:38:17.290Z,22.80
2022-11-13T09:40:29.157Z,23.40
2022-11-13T09:42:34.238Z,22.80
2022-11-13T09:44:41.598Z,21.40
2022-11-13T09:46:48.833Z,22.10
2022-11-13T09:48:57.193Z,22.30
2022-11-13T09:51:07.605Z,22.20
2022-11-13T09:53:13.197Z,22.90
2022-11-13T09:55:19.986Z,23.30
2022-11-13T09:57:33.750Z,23.60
2022-11-13T09:59:41.014Z,23.70
2022-11-13T10:01:52.487Z,23.90
2022-11-13T10:04:04.330Z,24.00
2022-11-13T10:06:22.274Z,22.80
2022-11-13T10:08:29.612Z,23.60
2022-11-13T10:10:48.259Z,23.70
2022-11-13T10:12:59.383Z,23.80
2022-11-13T10:15:06.275Z,22.70
2022-11-13T10:17:15.463Z,22.10
2022-11-13T10:19:25.897Z,22.60
2022-11-13T10:21:36.360Z,21.90
2022-11-13T10:23:40.267Z,22.00
2022-11-13T10:25:45.699Z,21.00
2022-11-13T10:27:55.253Z,21.40
2022-11-13T10:29:58.876Z,21.80
2022-11-13T10:32:18.894Z,21.00
2022-11-13T10:34:22.683Z,18.90
2022-11-13T10:36:35.414Z,17.90
2022-11-13T10:38:44.559Z,18.20
2022-11-13T10:40:47.841Z,18.70
2022-11-13T10:42:51.113Z,18.40
2022-11-13T10:44:56.975Z,18.50
2022-11-13T10:47:15.012Z,18.40
2022-11-13T10:49:21.160Z,18.90
2022-11-13T10:51:27.500Z,19.10
2022-11-13T10:53:42.705Z,19.00
2022-11-13T10:55:47.470Z,18.50
2022-11-13T10:57:57.770Z,19.00
2022-11-13T11:00:01.382Z,19.70
2022-11-13T11:02:16.967Z,19.60
2022-11-13T11:04:24.085Z,18.70
2022-11-13T11:07:04.478Z,17.40
2022-11-13T11:09:09.326Z,16.20
2022-11-13T11:11:34.108Z,15.50
2022-11-13T11:13:37.350Z,14.90
2022-11-13T11:15:46.274Z,15.00
2022-11-13T11:17:54.074Z,15.30
2022-11-13T11:20:02.938Z,15.60
2022-11-13T11:22:14.602Z,15.20
2022-11-13T11:24:24.873Z,14.50
2022-11-13T11:26:34.919Z,14.50
2022-11-13T11:28:44.317Z,14.60
2022-11-13T11:30:51.733Z,14.80
2022-11-13T11:33:02.044Z,15.70
2022-11-13T11:35:15.668Z,16.70
2022-11-13T11:37:20.921Z,17.50
2022-11-13T11:39:33.486Z,16.80
2022-11-13T11:41:47.132Z,16.60
2022-11-13T11:44:02.381Z,17.00
2022-11-13T11:46:05.972Z,16.90
2022-11-13T11:48:15.427Z,16.40
2022-11-13T11:50:28.541Z,15.50
2022-11-13T11:52:50.963Z,15.60
2022-11-13T11:55:22.003Z,16.20
2022-11-13T11:57:39.631Z,16.10
2022-11-13T11:59:54.636Z,16.50
2022-11-13T12:02:36.281Z,16.30
2022-11-13T12:04:54.216Z,15.90
2022-11-13T12:07:11.537Z,16.40
2022-11-13T12:09:21.074Z,16.90
2022-11-13T12:11:30.564Z,16.70
2022-11-13T12:13:38.329Z,16.80
2022-11-13T12:15:49.087Z,17.10
2022-11-13T12:18:00.551Z,17.40
2022-11-13T12:20:10.700Z,17.70
2022-11-13T12:22:20.992Z,18.30
2022-11-13T12:24:55.124Z,18.60
2022-11-13T12:27:11.608Z,19.60
2022-11-13T12:29:29.228Z,19.50
2022-11-13T12:31:48.550Z,20.30
2022-11-13T12:34:01.521Z,20.20
2022-11-13T12:36:06.316Z,20.00
2022-11-13T12:38:19.317Z,20.90
2022-11-13T12:40:29.320Z,20.60
2022-11-13T12:42:37.156Z,20.20
2022-11-13T12:44:48.590Z,19.30
2022-11-13T12:46:54.113Z,19.80
2022-11-13T12:48:57.364Z,19.80
2022-11-13T12:51:03.840Z,19.50
2022-11-13T12:53:09.854Z,19.70
2022-11-13T12:55:27.872Z,19.40
2022-11-13T12:57:33.980Z,20.20
2022-11-13T12:59:42.199Z,20.40
2022-11-13T13:01:49.314Z,19.70
2022-11-13T13:04:40.221Z,19.60
2022-11-13T13:06:58.891Z,20.00
2022-11-13T13:09:17.255Z,20.30
2022-11-13T13:11:28.180Z,19.90
2022-11-13T13:13:42.287Z,19.80
2022-11-13T13:15:54.527Z,19.80
2022-11-13T13:18:11.841Z,19.60
2022-11-13T13:20:34.293Z,19.40
2022-11-13T13:22:37.976Z,19.80
2022-11-13T13:24:41.791Z,19.60
2022-11-13T13:26:48.813Z,19.20
2022-11-13T13:28:55.681Z,19.20
2022-11-13T13:31:09.592Z,18.70
2022-11-13T13:33:22.883Z,18.50
2022-11-13T13:35:31.922Z,18.90
2022-11-13T13:37:44.379Z,19.10
2022-11-13T13:39:59.700Z,18.60
2022-11-13T13:42:17.130Z,19.00
2022-11-13T13:44:42.743Z,18.80
2022-11-13T13:46:46.278Z,18.10
2022-11-13T13:48:53.401Z,18.20
2022-11-13T13:50:57.813Z,17.70
2022-11-13T13:53:01.860Z,17.80
2022-11-13T13:55:08.959Z,17.10
2022-11-13T13:57:16.064Z,17.10
2022-11-13T13:59:21.693Z,16.80
2022-11-13T14:01:31.209Z,16.80
2022-11-13T14:03:34.670Z,16.20
2022-11-13T14:05:38.642Z,16.30
2022-11-13T14:07:47.487Z,16.40
2022-11-13T14:09:51.162Z,15.80
2022-11-13T14:12:06.341Z,15.90
2022-11-13T14:14:17.634Z,15.30
2022-11-13T14:16:20.897Z,14.90
2022-11-13T14:18:27.364Z,14.30
2022-11-13T14:20:46.363Z,14.00
2022-11-13T14:22:56.360Z,13.50
2022-11-13T14:25:02.051Z,13.10
2022-11-13T14:27:08.371Z,12.70
2022-11-13T14:29:23.663Z,12.20
2022-11-13T14:31:30.569Z,11.70
2022-11-13T14:33:39.435Z,11.50
2022-11-13T14:35:42.943Z,11.20
2022-11-13T14:37:47.362Z,10.90
2022-11-13T14:39:51.964Z,10.70
2022-11-13T14:41:58.617Z,10.40
2022-11-13T14:44:01.927Z,10.20
2022-11-13T14:46:07.203Z,10.00
2022-11-13T14:48:21.677Z,9.90
2022-11-13T14:50:28.685Z,9.80
2022-11-13T14:52:31.942Z,9.70
2022-11-13T14:55:08.006Z,9.60
2022-11-13T14:57:11.533Z,9.40
2022-11-13T14:59:19.851Z,9.20
2022-11-13T15:01:25.585Z,9.10
2022-11-13T15:03:31.169Z,8.90
2022-11-13T15:05:36.469Z,8.80
2022-11-13T15:07:43.444Z,8.80
2022-11-13T15:09:46.937Z,8.60
2022-11-13T15:11:50.949Z,8.40
2022-11-13T15:13:54.662Z,8.20
2022-11-13T15:15:58.137Z,8.10
2022-11-13T15:18:03.526Z,8.00
2022-11-13T15:20:09.790Z,7.80
2022-11-13T15:22:31.304Z,7.70
2022-11-13T15:24:34.748Z,7.50
2022-11-13T15:26:38.140Z,7.40
2022-11-13T15:28:41.788Z,7.30
2022-11-13T15:30:45.179Z,7.20
2022-11-13T15:32:49.338Z,7.10
2022-11-13T15:34:52.566Z,7.00
2022-11-13T15:36:55.960Z,6.90
2022-11-13T15:39:06.116Z,6.80
2022-11-13T15:41:13.964Z,6.90
2022-11-13T15:43:20.279Z,6.80
2022-11-13T15:45:23.644Z,6.60
2022-11-13T15:47:29.358Z,6.50
2022-11-13T15:49:32.679Z,6.50
2022-11-13T15:51:39.045Z,6.40
2022-11-13T15:53:42.482Z,6.30
2022-11-13T15:55:47.378Z,6.20
2022-11-13T15:57:51.241Z,6.10
2022-11-13T15:59:54.882Z,6.00
2022-11-13T16:01:58.512Z,5.90
2022-11-13T16:04:02.580Z,5.90
2022-11-13T16:06:05.934Z,5.80
2022-11-13T16:08:13.962Z,5.80
2022-11-13T16:10:17.373Z,5.70
2022-11-13T16:12:21.967Z,5.60
2022-11-13T16:14:25.542Z,5.60
2022-11-13T16:16:32.007Z,5.60
2022-11-13T16:18:35.648Z,5.50
2022-11-13T16:20:38.828Z,5.40
2022-11-13T16:22:42.389Z,5.40
2022-11-13T16:24:45.988Z,5.40
2022-11-13T16:26:52.041Z,5.30
2022-11-13T16:29:13.189Z,5.20
2022-11-13T16:31:17.374Z,5.20
2022-11-13T16:33:20.755Z,5.10
2022-11-13T16:35:23.964Z,5.10
2022-11-13T16:37:27.170Z,4.90
2022-11-13T16:39:30.351Z,4.90
2022-11-13T16:41:34.022Z,4.90
2022-11-13T16:43:37.209Z,4.90
2022-11-13T16:45:41.926Z,4.90
2022-11-13T16:47:46.046Z,5.00
2022-11-13T16:49:49.325Z,4.90
2022-11-13T16:51:53.697Z,4.80
2022-11-13T16:53:57.143Z,4.70
2022-11-13T16:56:01.796Z,4.70
2022-11-13T16:58:05.971Z,4.60
2022-11-13T17:00:13.405Z,4.60
2022-11-13T17:02:19.611Z,4.50
2022-11-13T17:04:23.281Z,4.40
2022-11-13T17:06:28.753Z,4.40
2022-11-13T17:08:32.055Z,4.40
2022-11-13T17:10:35.441Z,4.30
2022-11-13T17:12:38.832Z,4.30
2022-11-13T17:14:42.275Z,4.30
2022-11-13T17:16:45.577Z,4.30
2022-11-13T17:18:52.116Z,4.30
2022-11-13T17:20:55.472Z,4.30
2022-11-13T17:22:58.858Z,4.30
2022-11-13T17:25:02.189Z,4.30
2022-11-13T17:27:05.748Z,4.30
2022-11-13T17:29:09.039Z,4.20
2022-11-13T17:31:13.807Z,4.20
2022-11-13T17:33:17.552Z,4.20
2022-11-13T17:35:22.309Z,4.30
2022-11-13T17:37:25.633Z,4.30
2022-11-13T17:39:29.031Z,4.20
2022-11-13T17:41:32.279Z,4.20
2022-11-13T17:43:36.987Z,4.20
2022-11-13T17:45:40.764Z,4.10
2022-11-13T17:47:44.096Z,4.10
2022-11-13T17:49:47.812Z,4.10
2022-11-13T17:51:52.418Z,4.00
2022-11-13T17:53:58.562Z,4.00
2022-11-13T17:56:03.635Z,3.90
2022-11-13T17:58:07.016Z,3.90
2022-11-13T18:00:11.473Z,3.80
2022-11-13T18:02:14.787Z,3.70
2022-11-13T18:04:17.986Z,3.70
2022-11-13T18:06:21.953Z,3.70
2022-11-13T18:08:26.604Z,3.80
2022-11-13T18:10:29.928Z,3.80
2022-11-13T18:12:33.535Z,4.00
2022-11-13T18:14:36.734Z,4.10
2022-11-13T18:16:39.991Z,4.20
2022-11-13T18:18:43.743Z,4.40
2022-11-13T18:20:46.950Z,4.50
2022-11-13T18:22:50.320Z,4.60
2022-11-13T18:24:55.659Z,4.90
2022-11-13T18:26:58.872Z,5.10
2022-11-13T18:29:02.710Z,5.10
2022-11-13T18:31:10.391Z,5.20
2022-11-13T18:33:13.765Z,5.30
2022-11-13T18:35:17.162Z,5.30
2022-11-13T18:37:20.385Z,5.40
2022-11-13T18:39:23.656Z,5.40
2022-11-13T18:41:28.374Z,5.50
2022-11-13T18:43:31.907Z,5.50
2022-11-13T18:45:35.351Z,5.50
2022-11-13T18:47:38.637Z,5.50
2022-11-13T18:49:41.799Z,5.60
2022-11-13T18:51:45.013Z,5.60
2022-11-13T18:53:49.951Z,5.70
2022-11-13T18:55:53.432Z,5.70
2022-11-13T18:57:58.267Z,5.80
2022-11-13T19:00:01.460Z,5.90
2022-11-13T19:02:05.005Z,5.90
2022-11-13T19:04:24.319Z,5.90
2022-11-13T19:06:28.479Z,5.90
2022-11-13T19:08:31.949Z,6.00
2022-11-13T19:10:35.572Z,6.00
2022-11-13T19:12:38.965Z,6.00
2022-11-13T19:14:44.009Z,6.00
2022-11-13T19:16:47.652Z,6.10
2022-11-13T19:18:53.625Z,6.10
2022-11-13T19:20:57.096Z,6.10
2022-11-13T19:23:03.983Z,6.00
2022-11-13T19:25:10.120Z,6.10
2022-11-13T19:27:13.426Z,6.00
2022-11-13T19:29:16.790Z,6.00
2022-11-13T19:31:23.811Z,6.10
2022-11-13T19:33:28.368Z,6.10
2022-11-13T19:35:33.490Z,6.20
2022-11-13T19:37:36.820Z,6.20
2022-11-13T19:39:40.106Z,6.30
2022-11-13T19:41:43.775Z,6.30
2022-11-13T19:43:48.027Z,6.30
2022-11-13T19:45:54.168Z,6.30
2022-11-13T19:47:59.413Z,6.30
2022-11-13T19:50:02.907Z,6.40
2022-11-13T19:52:06.566Z,6.40
2022-11-13T19:54:10.366Z,6.50
2022-11-13T19:56:15.392Z,6.50
2022-11-13T19:58:19.037Z,6.50
2022-11-13T20:00:22.357Z,6.50
2022-11-13T20:02:25.995Z,6.50
2022-11-13T20:04:31.102Z,6.50
2022-11-13T20:06:34.861Z,6.60
2022-11-13T20:08:39.104Z,6.60
2022-11-13T20:10:42.527Z,6.60
2022-11-13T20:12:46.477Z,6.60
2022-11-13T20:14:49.803Z,6.70
2022-11-13T20:16:53.171Z,6.70
2022-11-13T20:18:58.592Z,6.70
2022-11-13T20:21:03.470Z,6.70
2022-11-13T20:23:07.119Z,6.70
2022-11-13T20:25:11.022Z,6.70
2022-11-13T20:27:14.358Z,6.70
2022-11-13T20:29:17.809Z,6.70
2022-11-13T20:31:22.844Z,6.80
2022-11-13T20:33:26.374Z,6.80
2022-11-13T20:35:29.621Z,6.80
2022-11-13T20:37:34.878Z,6.80
2022-11-13T20:39:39.008Z,6.80
2022-11-13T20:41:42.564Z,6.80
2022-11-13T20:43:45.855Z,6.80
2022-11-13T20:45:49.146Z,6.80
2022-11-13T20:47:52.441Z,6.80
2022-11-13T20:49:55.982Z,6.80
2022-11-13T20:51:59.166Z,6.80
2022-11-13T20:54:04.003Z,6.80
2022-11-13T20:56:08.421Z,6.90
2022-11-13T20:58:11.854Z,6.90
2022-11-13T21:00:16.235Z,6.90
2022-11-13T21:02:19.590Z,6.90
2022-11-13T21:04:23.525Z,6.90
2022-11-13T21:06:27.159Z,6.80
2022-11-13T21:08:30.628Z,6.80
2022-11-13T21:10:36.505Z,6.80
2022-11-13T21:12:39.914Z,6.80
2022-11-13T21:14:44.259Z,6.80
2022-11-13T21:16:47.466Z,6.70
2022-11-13T21:18:50.944Z,6.70
2022-11-13T21:20:54.322Z,6.80
2022-11-13T21:22:58.810Z,6.80
2022-11-13T21:25:02.038Z,6.80
2022-11-13T21:29:31.825Z,6.80
2022-11-13T21:31:38.432Z,6.90
2022-11-13T21:33:43.289Z,6.90
2022-11-13T21:35:46.916Z,6.90
2022-11-13T21:37:50.310Z,6.90
2022-11-13T21:39:53.625Z,6.90
2022-11-13T21:41:59.677Z,6.90
2022-11-13T21:44:08.117Z,6.90
2022-11-13T21:46:11.298Z,6.90
2022-11-13T21:48:16.967Z,7.00
2022-11-13T21:50:20.252Z,7.00
2022-11-13T21:52:23.470Z,7.00
2022-11-13T21:54:26.867Z,7.00
2022-11-13T21:56:31.715Z,7.10
2022-11-13T21:58:37.766Z,7.10
2022-11-13T22:00:42.473Z,7.10
2022-11-13T22:02:45.641Z,7.10
2022-11-13T22:04:48.806Z,7.10
2022-11-13T22:06:52.792Z,7.10
2022-11-13T22:08:57.779Z,7.10
2022-11-13T22:11:01.091Z,7.10
2022-11-13T22:13:04.500Z,7.10
2022-11-13T22:15:09.757Z,7.00
2022-11-13T22:17:14.484Z,7.10
2022-11-13T22:19:24.045Z,7.00
2022-11-13T22:21:31.302Z,7.00
2022-11-13T22:23:35.729Z,7.10
2022-11-13T22:25:38.996Z,7.00
2022-11-13T22:27:42.203Z,7.00
2022-11-13T22:29:45.559Z,7.00
2022-11-13T22:31:48.779Z,7.00
2022-11-13T22:33:55.283Z,7.00
2022-11-13T22:36:02.891Z,7.00
2022-11-13T22:38:06.440Z,7.10
2022-11-13T22:40:13.259Z,7.10
2022-11-13T22:42:16.649Z,7.10
2022-11-13T22:44:19.933Z,7.10
2022-11-13T22:46:25.184Z,7.10
2022-11-13T22:48:28.720Z,7.10
2022-11-13T22:50:35.876Z,7.10
2022-11-13T22:52:39.211Z,7.10
2022-11-13T22:54:42.432Z,7.10
2022-11-13T22:56:45.748Z,7.10
2022-11-13T22:58:49.109Z,7.10
2022-11-13T23:00:52.400Z,7.10
2022-11-13T23:02:55.792Z,7.10
2022-11-13T23:04:58.956Z,7.10
2022-11-13T23:07:03.777Z,7.10
2022-11-13T23:09:07.502Z,7.20
2022-11-13T23:11:13.795Z,7.10
2022-11-13T23:13:17.306Z,7.20
2022-11-13T23:15:20.546Z,7.20
2022-11-13T23:17:23.759Z,7.20
2022-11-13T23:19:26.940Z,7.20
2022-11-13T23:21:30.702Z,7.20
2022-11-13T23:23:36.370Z,7.20
2022-11-13T23:25:40.008Z,7.20
2022-11-13T23:27:43.212Z,7.20
2022-11-13T23:29:50.092Z,7.20
2022-11-13T23:31:54.094Z,7.20
2022-11-13T23:33:57.632Z,7.20
2022-11-13T23:36:02.048Z,7.20
2022-11-13T23:38:05.589Z,7.20
2022-11-13T23:40:11.472Z,7.20
2022-11-13T23:42:23.970Z,7.30
2022-11-13T23:44:39.132Z,7.30
2022-11-13T23:46:43.278Z,7.30
2022-11-13T23:48:46.878Z,7.30
2022-11-13T23:50:50.467Z,7.30
2022-11-13T23:52:53.862Z,7.30
2022-11-13T23:54:57.152Z,7.20
2022-11-13T23:57:01.743Z,7.30
2022-11-13T23:59:04.989Z,7.30
